Time;durP1;ratioP1;P1;durP2;ratioP2;P2;SDS_P1;SDS_P2;PMS_P1;PMS_P2;Temp;Humidity;BMP_temperature;BMP_pressure;BME280_temperature;BME280_humidity;BME280_pressure;Samples;Min_cycle;Max_cycle;Signal;HPM_P1;HPM_P2
2022/05/27 00:01:29;;;;;;;3.65;2.03;;;;;;;;;;5047857;28;20025;-76
2022/05/27 00:03:59;;;;;;;2.53;1.58;;;;;;;;;;5046351;28;20037;-76
2022/05/27 00:06:25;;;;;;;6.13;2.70;;;;;;;;;;5046837;28;20033;-75
2022/05/27 00:08:51;;;;;;;2.10;1.50;;;;;;;;;;5049159;28;20028;-75
2022/05/27 00:11:17;;;;;;;2.28;1.63;;;;;;;;;;5045908;28;20545;-76
2022/05/27 00:13:43;;;;;;;2.47;1.75;;;;;;;;;;5046969;28;20397;-76
2022/05/27 00:16:09;;;;;;;2.38;1.70;;;;;;;;;;5040913;28;20031;-75
2022/05/27 00:18:35;;;;;;;2.65;1.35;;;;;;;;;;5046740;28;20399;-75
2022/05/27 00:21:01;;;;;;;2.80;1.77;;;;;;;;;;5046487;28;20033;-76
2022/05/27 00:23:28;;;;;;;3.47;2.28;;;;;;;;;;5048471;28;20037;-75
2022/05/27 00:25:54;;;;;;;2.15;1.35;;;;;;;;;;5044004;28;20029;-76
2022/05/27 00:28:20;;;;;;;2.55;1.27;;;;;;;;;;5047812;28;20158;-76
2022/05/27 00:30:45;;;;;;;2.97;2.03;;;;;;;;;;5046104;28;20032;-76
2022/05/27 00:33:11;;;;;;;2.55;1.63;;;;;;;;;;5048579;28;20110;-75
2022/05/27 00:35:38;;;;;;;3.33;2.03;;;;;;;;;;5045915;28;20021;-75
2022/05/27 00:38:04;;;;;;;1.45;1.33;;;;;;;;;;5048713;28;20053;-75
2022/05/27 00:40:35;;;;;;;3.60;1.75;;;;;;;;;;5047444;28;20029;-75
2022/05/27 00:43:01;;;;;;;0.80;0.80;;;;;;;;;;5049534;28;20017;-75
2022/05/27 00:45:27;;;;;;;1.67;1.48;;;;;;;;;;5045287;28;20654;-76
2022/05/27 00:47:54;;;;;;;1.70;1.50;;;;;;;;;;5042047;28;20032;-74
2022/05/27 00:50:21;;;;;;;1.55;1.00;;;;;;;;;;5044707;28;20041;-74
2022/05/27 00:52:48;;;;;;;2.33;2.08;;;;;;;;;;5042168;28;20071;-76
2022/05/27 00:55:17;;;;;;;1.60;1.50;;;;;;;;;;5045365;28;20055;-75
2022/05/27 00:57:48;;;;;;;1.35;1.00;;;;;;;;;;5047375;28;20021;-75
2022/05/27 01:00:16;;;;;;;1.02;0.88;;;;;;;;;;5049373;28;20471;-75
2022/05/27 01:02:42;;;;;;;1.75;1.65;;;;;;;;;;5047121;28;20126;-76
2022/05/27 01:05:10;;;;;;;1.50;1.15;;;;;;;;;;5047977;28;20019;-74
2022/05/27 01:07:36;;;;;;;2.35;2.15;;;;;;;;;;5048522;28;20059;-76
2022/05/27 01:10:05;;;;;;;1.80;1.58;;;;;;;;;;5045184;28;20029;-75
2022/05/27 01:12:49;;;;;;;1.20;1.10;;;;;;;;;;5045814;28;20021;-75
2022/05/27 01:15:30;;;;;;;0.93;0.88;;;;;;;;;;5046163;28;20430;-76
2022/05/27 01:20:18;;;;;;;1.73;0.90;;;;;;;;;;5045085;28;20029;-75
2022/05/27 01:21:14;;;;;;;10.18;0.93;;;;;;;;;;5048445;28;20578;-76
2022/05/27 01:23:50;;;;;;;6.95;1.73;;;;;;;;;;5044069;28;20044;-75
2022/05/27 01:26:25;;;;;;;1.73;1.30;;;;;;;;;;5048475;28;20029;-75
2022/05/27 01:29:03;;;;;;;1.92;1.38;;;;;;;;;;5046349;28;20041;-75
2022/05/27 01:31:32;;;;;;;2.78;1.27;;;;;;;;;;5049013;28;20028;-76
2022/05/27 01:34:20;;;;;;;1.95;1.20;;;;;;;;;;5045751;28;20029;-77
2022/05/27 01:36:53;;;;;;;0.98;0.98;;;;;;;;;;5046429;28;20029;-77
2022/05/27 01:39:31;;;;;;;3.78;1.90;;;;;;;;;;5048600;28;20031;-77
2022/05/27 01:42:16;;;;;;;1.70;1.50;;;;;;;;;;5047551;28;20395;-77
2022/05/27 01:44:44;;;;;;;2.30;1.13;;;;;;;;;;5045517;28;20040;-75
2022/05/27 01:47:15;;;;;;;1.60;1.15;;;;;;;;;;5044685;28;20030;-76
2022/05/27 01:49:45;;;;;;;1.42;1.23;;;;;;;;;;5046747;28;20032;-75
2022/05/27 01:52:29;;;;;;;2.58;1.70;;;;;;;;;;5051191;28;20037;-75
2022/05/27 01:54:59;;;;;;;2.08;1.40;;;;;;;;;;5045110;28;20086;-76
2022/05/27 01:57:32;;;;;;;2.22;1.80;;;;;;;;;;5045251;28;20488;-75
2022/05/27 02:00:10;;;;;;;1.10;0.95;;;;;;;;;;5048502;28;20033;-75
2022/05/27 02:02:39;;;;;;;1.65;1.52;;;;;;;;;;5046293;28;20044;-75
2022/05/27 02:05:17;;;;;;;4.57;2.05;;;;;;;;;;5042368;28;20093;-77
2022/05/27 02:07:47;;;;;;;4.43;2.22;;;;;;;;;;5048541;28;20048;-76
2022/05/27 02:10:16;;;;;;;3.38;2.33;;;;;;;;;;5050884;28;20032;-76
2022/05/27 02:12:45;;;;;;;1.00;0.98;;;;;;;;;;5041974;28;20685;-76
2022/05/27 02:15:14;;;;;;;2.10;1.27;;;;;;;;;;5045920;28;20029;-76
2022/05/27 02:17:50;;;;;;;2.47;1.55;;;;;;;;;;5043064;28;20036;-76
2022/05/27 02:20:28;;;;;;;2.53;1.45;;;;;;;;;;5044327;28;20099;-76
2022/05/27 02:22:57;;;;;;;4.32;1.88;;;;;;;;;;5043143;28;20029;-76
2022/05/27 02:25:36;;;;;;;4.55;1.45;;;;;;;;;;5045609;28;20047;-76
2022/05/27 02:28:05;;;;;;;3.20;1.92;;;;;;;;;;5042094;28;20131;-76
2022/05/27 02:30:34;;;;;;;2.28;1.67;;;;;;;;;;5035820;28;20396;-76
2022/05/27 02:35:47;;;;;;;2.08;1.90;;;;;;;;;;5043339;28;20172;-75
2022/05/27 02:38:13;;;;;;;1.58;1.40;;;;;;;;;;5048327;28;20044;-76
2022/05/27 02:40:46;;;;;;;2.10;1.80;;;;;;;;;;5046702;28;20032;-76
2022/05/27 02:43:18;;;;;;;3.22;2.15;;;;;;;;;;5046569;28;20017;-76
2022/05/27 02:45:44;;;;;;;2.60;2.35;;;;;;;;;;5046511;28;20029;-76
2022/05/27 02:48:30;;;;;;;5.25;2.60;;;;;;;;;;5043697;28;20044;-76
2022/05/27 02:51:05;;;;;;;4.63;2.65;;;;;;;;;;5038490;28;20429;-76
2022/05/27 02:53:37;;;;;;;2.00;1.80;;;;;;;;;;5045008;28;20037;-76
2022/05/27 02:56:19;;;;;;;2.53;1.95;;;;;;;;;;5042390;28;20107;-76
2022/05/27 02:58:45;;;;;;;2.13;1.65;;;;;;;;;;5047234;28;20577;-76
2022/05/27 03:01:11;;;;;;;4.38;2.00;;;;;;;;;;5044299;28;20041;-75
2022/05/27 03:03:37;;;;;;;2.47;2.28;;;;;;;;;;5042997;28;20089;-76
2022/05/27 03:06:21;;;;;;;5.00;2.03;;;;;;;;;;5048449;28;20120;-76
2022/05/27 03:08:56;;;;;;;2.15;1.55;;;;;;;;;;5047344;28;20747;-76
2022/05/27 03:11:27;;;;;;;2.92;1.63;;;;;;;;;;5045546;28;20040;-76
2022/05/27 03:14:11;;;;;;;2.70;2.10;;;;;;;;;;5047814;28;20391;-76
2022/05/27 03:17:01;;;;;;;3.50;1.40;;;;;;;;;;5041319;28;20032;-76
2022/05/27 03:19:47;;;;;;;1.65;1.40;;;;;;;;;;5045892;28;20033;-76
2022/05/27 03:22:21;;;;;;;2.78;2.15;;;;;;;;;;5037944;28;20025;-76
2022/05/27 03:24:53;;;;;;;1.90;1.33;;;;;;;;;;5047555;28;20083;-75
2022/05/27 03:27:35;;;;;;;1.92;1.13;;;;;;;;;;5046568;28;20064;-76
2022/05/27 03:30:04;;;;;;;1.40;1.23;;;;;;;;;;5042296;28;20029;-76
2022/05/27 03:32:47;;;;;;;1.92;1.48;;;;;;;;;;5049644;28;20032;-76
2022/05/27 03:35:32;;;;;;;2.15;1.70;;;;;;;;;;5050160;28;20415;-76
2022/05/27 03:38:01;;;;;;;1.23;1.13;;;;;;;;;;5043504;28;20063;-75
2022/05/27 03:40:33;;;;;;;1.67;1.27;;;;;;;;;;5045891;28;20033;-76
2022/05/27 03:43:01;;;;;;;5.88;2.40;;;;;;;;;;5050119;28;20032;-76
2022/05/27 03:45:27;;;;;;;3.15;2.08;;;;;;;;;;5041390;28;20108;-76
2022/05/27 03:47:53;;;;;;;1.88;1.73;;;;;;;;;;5050709;28;20127;-76
2022/05/27 03:50:26;;;;;;;2.85;1.85;;;;;;;;;;5044031;28;20071;-76
2022/05/27 03:52:53;;;;;;;2.78;1.88;;;;;;;;;;5046191;28;20242;-76
2022/05/27 03:55:22;;;;;;;3.70;2.35;;;;;;;;;;5050490;28;20032;-75
2022/05/27 03:57:48;;;;;;;1.13;1.02;;;;;;;;;;5050150;28;20064;-76
2022/05/27 04:00:15;;;;;;;3.95;2.05;;;;;;;;;;5049710;28;20055;-76
2022/05/27 04:02:41;;;;;;;2.55;1.45;;;;;;;;;;5043050;28;20048;-76
2022/05/27 04:05:07;;;;;;;3.13;1.17;;;;;;;;;;5042327;28;20033;-76
2022/05/27 04:07:33;;;;;;;3.28;1.80;;;;;;;;;;5040714;28;20092;-76
2022/05/27 04:09:59;;;;;;;2.42;1.70;;;;;;;;;;5047668;28;20103;-76
2022/05/27 04:12:25;;;;;;;1.40;1.15;;;;;;;;;;5049281;28;20086;-76
2022/05/27 04:14:52;;;;;;;1.20;1.10;;;;;;;;;;5049550;28;20029;-76
2022/05/27 04:17:30;;;;;;;1.27;1.10;;;;;;;;;;5049681;28;20021;-76
2022/05/27 04:19:57;;;;;;;2.38;1.30;;;;;;;;;;5047325;28;20112;-76
2022/05/27 04:22:23;;;;;;;2.17;1.70;;;;;;;;;;5045900;28;20079;-76
2022/05/27 04:24:52;;;;;;;1.73;1.50;;;;;;;;;;5047271;28;20131;-76
2022/05/27 04:27:19;;;;;;;2.33;1.52;;;;;;;;;;5043557;28;20021;-76
2022/05/27 04:29:46;;;;;;;3.28;1.73;;;;;;;;;;5045967;28;20159;-76
2022/05/27 04:32:12;;;;;;;1.27;1.08;;;;;;;;;;5047230;28;20087;-76
2022/05/27 04:34:39;;;;;;;1.98;1.70;;;;;;;;;;5047551;28;20021;-75
2022/05/27 04:37:05;;;;;;;1.40;1.00;;;;;;;;;;5044864;28;20110;-76
2022/05/27 04:39:31;;;;;;;1.55;1.45;;;;;;;;;;5044085;28;20060;-74
2022/05/27 04:41:57;;;;;;;2.30;1.52;;;;;;;;;;5045807;28;20033;-74
2022/05/27 04:44:23;;;;;;;2.95;1.65;;;;;;;;;;5051268;28;20074;-75
2022/05/27 04:46:49;;;;;;;1.65;1.10;;;;;;;;;;5038663;28;20036;-75
2022/05/27 04:52:00;;;;;;;1.98;1.27;;;;;;;;;;5048822;28;20098;-75
2022/05/27 04:54:29;;;;;;;2.95;1.63;;;;;;;;;;5041623;28;20377;-75
2022/05/27 04:56:55;;;;;;;1.88;1.50;;;;;;;;;;5040048;28;20020;-75
2022/05/27 04:59:21;;;;;;;4.30;1.90;;;;;;;;;;5049677;28;20546;-74
2022/05/27 05:01:47;;;;;;;2.45;1.58;;;;;;;;;;5045437;28;20029;-75
2022/05/27 05:04:13;;;;;;;2.83;1.42;;;;;;;;;;5040953;28;20100;-75
2022/05/27 05:06:39;;;;;;;1.25;1.10;;;;;;;;;;5050083;28;20025;-75
2022/05/27 05:09:05;;;;;;;1.60;1.48;;;;;;;;;;5045956;28;20061;-75
2022/05/27 05:11:31;;;;;;;1.75;1.63;;;;;;;;;;5055692;28;20068;-75
2022/05/27 05:13:57;;;;;;;2.92;1.95;;;;;;;;;;5036554;28;20079;-75
2022/05/27 05:16:23;;;;;;;1.33;1.23;;;;;;;;;;5043069;28;20116;-75
2022/05/27 05:18:50;;;;;;;1.83;1.60;;;;;;;;;;5043559;28;20052;-75
2022/05/27 05:21:16;;;;;;;2.60;1.63;;;;;;;;;;5043573;28;20026;-75
2022/05/27 05:23:42;;;;;;;1.58;1.10;;;;;;;;;;5063172;28;20438;-76
2022/05/27 05:26:08;;;;;;;1.10;0.98;;;;;;;;;;5046587;28;20561;-75
2022/05/27 05:28:34;;;;;;;1.77;1.40;;;;;;;;;;5048781;28;20033;-76
2022/05/27 05:31:00;;;;;;;1.92;1.48;;;;;;;;;;5047979;28;20029;-75
2022/05/27 05:33:26;;;;;;;2.08;1.85;;;;;;;;;;5048439;28;20507;-75
2022/05/27 05:35:52;;;;;;;3.10;1.23;;;;;;;;;;5048301;28;20419;-76
2022/05/27 05:38:19;;;;;;;1.42;1.10;;;;;;;;;;5045329;28;20040;-76
2022/05/27 05:40:45;;;;;;;0.95;0.60;;;;;;;;;;5050785;28;20059;-75
2022/05/27 05:43:11;;;;;;;1.30;1.00;;;;;;;;;;5049580;28;20033;-76
2022/05/27 05:45:37;;;;;;;0.73;0.73;;;;;;;;;;5050276;28;20033;-76
2022/05/27 05:48:03;;;;;;;1.02;0.90;;;;;;;;;;5047581;28;20045;-75
2022/05/27 05:50:29;;;;;;;1.25;1.15;;;;;;;;;;5048271;28;20476;-75
2022/05/27 05:52:55;;;;;;;1.23;1.13;;;;;;;;;;5049663;28;20025;-75
2022/05/27 05:55:22;;;;;;;0.60;0.60;;;;;;;;;;5047998;28;20075;-76
2022/05/27 05:57:49;;;;;;;2.47;1.60;;;;;;;;;;5050882;28;20025;-77
2022/05/27 06:00:17;;;;;;;1.40;0.85;;;;;;;;;;5049527;28;20033;-76
2022/05/27 06:02:43;;;;;;;0.60;0.60;;;;;;;;;;5043861;28;20486;-76
2022/05/27 06:05:09;;;;;;;0.63;0.63;;;;;;;;;;5041876;28;20039;-76
2022/05/27 06:07:35;;;;;;;3.15;0.80;;;;;;;;;;5046369;28;20086;-76
2022/05/27 06:10:04;;;;;;;2.45;1.45;;;;;;;;;;5049988;28;20029;-76
2022/05/27 06:12:33;;;;;;;1.08;0.98;;;;;;;;;;5045398;28;20029;-76
2022/05/27 06:15:00;;;;;;;0.68;0.68;;;;;;;;;;5046832;28;20033;-76
2022/05/27 06:17:27;;;;;;;0.77;0.77;;;;;;;;;;5042878;28;20500;-75
2022/05/27 06:19:53;;;;;;;0.70;0.70;;;;;;;;;;5038263;28;20538;-75
2022/05/27 06:22:19;;;;;;;0.73;0.73;;;;;;;;;;5047772;28;20053;-76
2022/05/27 06:24:45;;;;;;;0.70;0.70;;;;;;;;;;5040709;28;20068;-76
2022/05/27 06:27:11;;;;;;;0.68;0.68;;;;;;;;;;5044652;28;20506;-76
2022/05/27 06:35:06;;;;;;;1.88;1.10;;;;;;;;;;5046755;28;20036;-75
2022/05/27 06:37:32;;;;;;;1.15;0.75;;;;;;;;;;5041512;28;20480;-75
2022/05/27 06:39:58;;;;;;;0.90;0.75;;;;;;;;;;5049005;28;20021;-76
2022/05/27 06:42:24;;;;;;;5.80;1.50;;;;;;;;;;5044597;28;20033;-76
2022/05/27 06:44:50;;;;;;;0.57;0.55;;;;;;;;;;5038132;28;20204;-75
2022/05/27 06:47:19;;;;;;;2.00;1.42;;;;;;;;;;5031634;28;20060;-76
2022/05/27 06:49:44;;;;;;;1.48;1.15;;;;;;;;;;5036534;28;20060;-76
2022/05/27 06:52:11;;;;;;;2.17;0.95;;;;;;;;;;5040680;28;20064;-76
2022/05/27 06:54:37;;;;;;;0.55;0.40;;;;;;;;;;5041083;28;20025;-78
2022/05/27 06:57:06;;;;;;;0.57;0.57;;;;;;;;;;5047220;28;20033;-76
2022/05/27 06:59:33;;;;;;;0.60;0.60;;;;;;;;;;5041127;28;20031;-76
2022/05/27 07:01:59;;;;;;;1.50;0.95;;;;;;;;;;5041455;28;20071;-76
2022/05/27 07:04:25;;;;;;;0.70;0.70;;;;;;;;;;5047757;28;20036;-77
2022/05/27 07:06:51;;;;;;;0.82;0.77;;;;;;;;;;5047807;28;20021;-76
2022/05/27 07:09:18;;;;;;;0.50;0.50;;;;;;;;;;5048047;28;20442;-76
2022/05/27 07:11:45;;;;;;;1.35;1.08;;;;;;;;;;5042878;28;20037;-76
2022/05/27 07:14:13;;;;;;;0.95;0.70;;;;;;;;;;5044226;28;20122;-75
2022/05/27 07:16:39;;;;;;;2.83;0.85;;;;;;;;;;5045236;28;20031;-74
2022/05/27 07:19:05;;;;;;;1.65;0.95;;;;;;;;;;5047751;28;20029;-75
2022/05/27 07:21:31;;;;;;;0.60;0.60;;;;;;;;;;5048672;28;20115;-74
2022/05/27 07:23:57;;;;;;;2.53;0.70;;;;;;;;;;5040439;28;20458;-76
2022/05/27 07:26:24;;;;;;;0.77;0.77;;;;;;;;;;5034574;28;20536;-76
2022/05/27 07:28:50;;;;;;;6.70;0.50;;;;;;;;;;5044700;28;20029;-76
2022/05/27 07:31:17;;;;;;;2.08;0.63;;;;;;;;;;5039383;28;20037;-76
2022/05/27 07:33:43;;;;;;;3.42;0.60;;;;;;;;;;5036824;28;20025;-74
2022/05/27 07:36:09;;;;;;;0.15;0.15;;;;;;;;;;5041699;28;20029;-76
2022/05/27 07:38:35;;;;;;;0.50;0.50;;;;;;;;;;5041989;28;20044;-76
2022/05/27 07:41:01;;;;;;;0.90;0.40;;;;;;;;;;5035542;28;20061;-75
2022/05/27 07:43:27;;;;;;;2.85;0.47;;;;;;;;;;5045689;28;20222;-73
2022/05/27 07:45:53;;;;;;;2.40;0.68;;;;;;;;;;5045318;28;20033;-72
2022/05/27 07:48:19;;;;;;;0.50;0.50;;;;;;;;;;5047054;28;20041;-74
2022/05/27 07:50:45;;;;;;;3.70;0.70;;;;;;;;;;5044037;28;20060;-73
2022/05/27 07:53:11;;;;;;;0.52;0.40;;;;;;;;;;5040279;28;20120;-75
2022/05/27 07:55:37;;;;;;;1.02;0.85;;;;;;;;;;5039678;28;20045;-75
2022/05/27 07:58:03;;;;;;;0.30;0.30;;;;;;;;;;5043046;28;20040;-75
2022/05/27 08:00:30;;;;;;;0.63;0.55;;;;;;;;;;5041380;28;20110;-75
2022/05/27 08:02:56;;;;;;;0.55;0.55;;;;;;;;;;5034701;28;20618;-75
2022/05/27 08:05:24;;;;;;;0.20;0.20;;;;;;;;;;5038967;28;20017;-75
2022/05/27 08:07:51;;;;;;;0.25;0.25;;;;;;;;;;5048125;28;20128;-75
2022/05/27 08:10:19;;;;;;;8.10;1.52;;;;;;;;;;5045818;28;20025;-73
2022/05/27 08:12:45;;;;;;;1.48;0.22;;;;;;;;;;5046957;28;20483;-75
2022/05/27 08:15:12;;;;;;;0.28;0.22;;;;;;;;;;5038979;28;20120;-75
2022/05/27 08:17:38;;;;;;;0.10;0.10;;;;;;;;;;5038915;28;20029;-73
2022/05/27 08:20:05;;;;;;;0.43;0.43;;;;;;;;;;5041837;28;20523;-76
2022/05/27 08:22:31;;;;;;;5.45;1.52;;;;;;;;;;5047343;28;20036;-75
2022/05/27 08:24:57;;;;;;;0.17;0.10;;;;;;;;;;5041263;28;20498;-75
2022/05/27 08:27:23;;;;;;;1.15;0.82;;;;;;;;;;5042331;28;20025;-75
2022/05/27 08:29:49;;;;;;;6.97;0.52;;;;;;;;;;5039995;28;20025;-75
2022/05/27 08:32:15;;;;;;;0.45;0.45;;;;;;;;;;5038946;28;20582;-75
2022/05/27 08:40:33;;;;;;;0.30;0.30;;;;;;;;;;5043100;28;20059;-75
2022/05/27 08:43:08;;;;;;;0.52;0.30;;;;;;;;;;5044806;28;20021;-74
2022/05/27 08:46:10;;;;;;;1.65;0.40;;;;;;;;;;5039205;28;20021;-75
2022/05/27 08:48:38;;;;;;;0.35;0.35;;;;;;;;;;5016460;28;20116;-74
2022/05/27 08:51:11;;;;;;;1.35;0.63;;;;;;;;;;5041424;28;20025;-75
2022/05/27 08:53:52;;;;;;;0.20;0.20;;;;;;;;;;5047005;28;20387;-75
2022/05/27 08:59:28;;;;;;;;;;;;;;;;;;5033597;28;20094;-75
2022/05/27 09:02:29;;;;;;;0.35;0.35;;;;;;;;;;5042292;28;19909;-75
2022/05/27 09:04:55;;;;;;;0.35;0.35;;;;;;;;;;4964010;28;20038;-74
2022/05/27 09:07:31;;;;;;;2.33;0.20;;;;;;;;;;5028255;28;20498;-74
2022/05/27 09:09:58;;;;;;;3.47;1.02;;;;;;;;;;5052584;28;20479;-77
2022/05/27 09:12:40;;;;;;;0.20;0.20;;;;;;;;;;5038400;28;20117;-75
2022/05/27 09:15:19;;;;;;;0.52;0.52;;;;;;;;;;5036496;28;20053;-75
2022/05/27 09:18:03;;;;;;;0.10;0.10;;;;;;;;;;5045898;28;20029;-75
2022/05/27 09:20:48;;;;;;;4.13;0.57;;;;;;;;;;5040245;28;20025;-76
2022/05/27 09:23:33;;;;;;;0.40;0.38;;;;;;;;;;5044434;28;20045;-77
2022/05/27 09:26:18;;;;;;;0.75;0.40;;;;;;;;;;5036940;28;20111;-76
2022/05/27 09:28:57;;;;;;;1.65;0.60;;;;;;;;;;5042940;28;20025;-77
2022/05/27 09:31:28;;;;;;;8.80;1.38;;;;;;;;;;5044908;28;20037;-78
2022/05/27 09:33:55;;;;;;;4.18;0.80;;;;;;;;;;5033942;28;20036;-77
2022/05/27 09:36:26;;;;;;;0.40;0.30;;;;;;;;;;5044120;28;20434;-77
2022/05/27 09:38:54;;;;;;;0.38;0.38;;;;;;;;;;5045657;28;20024;-76
2022/05/27 09:41:23;;;;;;;0.88;0.32;;;;;;;;;;5045154;28;20029;-76
2022/05/27 09:43:52;;;;;;;0.50;0.50;;;;;;;;;;5041255;28;20044;-76
2022/05/27 09:46:23;;;;;;;2.35;0.65;;;;;;;;;;5048539;28;20040;-76
2022/05/27 09:48:48;;;;;;;0.10;0.10;;;;;;;;;;5031018;28;20041;-76
2022/05/27 09:51:16;;;;;;;0.47;0.38;;;;;;;;;;5040909;28;20039;-75
2022/05/27 09:53:44;;;;;;;0.57;0.40;;;;;;;;;;5037417;28;20030;-76
2022/05/27 09:56:12;;;;;;;0.45;0.32;;;;;;;;;;5035824;28;20103;-76
2022/05/27 09:58:41;;;;;;;0.40;0.40;;;;;;;;;;5037618;28;20107;-76
2022/05/27 10:01:21;;;;;;;0.70;0.60;;;;;;;;;;5038743;28;20033;-76
2022/05/27 10:03:49;;;;;;;0.65;0.40;;;;;;;;;;5043025;28;20191;-76
2022/05/27 10:06:18;;;;;;;0.45;0.45;;;;;;;;;;5046587;28;20070;-76
2022/05/27 10:08:53;;;;;;;0.40;0.40;;;;;;;;;;5039306;28;20388;-76
2022/05/27 10:11:29;;;;;;;0.43;0.30;;;;;;;;;;5045803;28;20034;-76
2022/05/27 10:14:14;;;;;;;0.32;0.22;;;;;;;;;;5048538;28;20135;-76
2022/05/27 10:16:42;;;;;;;0.25;0.25;;;;;;;;;;5042580;28;20024;-76
2022/05/27 10:19:10;;;;;;;0.65;0.40;;;;;;;;;;5041564;28;20032;-76
2022/05/27 10:21:57;;;;;;;4.20;0.88;;;;;;;;;;5042081;28;20033;-76
2022/05/27 10:24:30;;;;;;;1.05;0.32;;;;;;;;;;5045097;28;20056;-76
2022/05/27 10:27:14;;;;;;;0.93;0.32;;;;;;;;;;5047032;28;20752;-77
2022/05/27 10:29:51;;;;;;;10.43;1.20;;;;;;;;;;5046207;28;20119;-74
2022/05/27 10:32:26;;;;;;;0.20;0.20;;;;;;;;;;5038552;28;20082;-79
2022/05/27 10:34:52;;;;;;;0.65;0.50;;;;;;;;;;5039640;28;20040;-75
2022/05/27 10:37:50;;;;;;;1.38;0.40;;;;;;;;;;5041648;28;20025;-75
2022/05/27 10:40:34;;;;;;;2.72;0.47;;;;;;;;;;5024457;28;20626;-75
2022/05/27 10:43:19;;;;;;;2.22;1.52;;;;;;;;;;5046421;28;20025;-75
2022/05/27 10:45:47;;;;;;;3.13;0.60;;;;;;;;;;5042823;28;20021;-77
2022/05/27 10:48:31;;;;;;;6.45;0.65;;;;;;;;;;5042889;28;20033;-77
2022/05/27 10:51:13;;;;;;;1.27;0.47;;;;;;;;;;5046336;28;20037;-76
2022/05/27 10:53:57;;;;;;;4.80;0.90;;;;;;;;;;5041225;28;20040;-76
2022/05/27 10:56:33;;;;;;;0.68;0.60;;;;;;;;;;5032701;28;20536;-77
2022/05/27 11:02:05;;;;;;;7.07;0.40;;;;;;;;;;5040460;28;20040;-76
2022/05/27 11:04:53;;;;;;;3.08;1.15;;;;;;;;;;5003038;28;20046;-75
2022/05/27 11:07:38;;;;;;;0.40;0.40;;;;;;;;;;4986319;28;20056;-76
2022/05/27 11:10:22;;;;;;;1.75;1.60;;;;;;;;;;5003847;28;20062;-77
2022/05/27 11:16:11;;;;;;;1.58;0.85;;;;;;;;;;5000362;28;20072;-79
2022/05/27 11:18:43;;;;;;;1.75;0.60;;;;;;;;;;4983222;28;20044;-77
2022/05/27 11:21:50;;;;;;;3.33;0.47;;;;;;;;;;5003512;28;20030;-78
2022/05/27 11:24:35;;;;;;;2.05;0.65;;;;;;;;;;4994366;28;20037;-78
2022/05/27 11:27:10;;;;;;;1.10;0.68;;;;;;;;;;5008329;28;20037;-77
2022/05/27 11:29:45;;;;;;;0.40;0.40;;;;;;;;;;5009103;28;20033;-77
2022/05/27 11:32:19;;;;;;;0.75;0.63;;;;;;;;;;5002902;28;20033;-77
2022/05/27 11:34:54;;;;;;;1.48;0.47;;;;;;;;;;4997210;28;20057;-77
2022/05/27 11:37:35;;;;;;;5.70;1.00;;;;;;;;;;4990944;28;20488;-78
2022/05/27 11:40:34;;;;;;;2.03;0.55;;;;;;;;;;4995997;28;20056;-78
2022/05/27 11:43:12;;;;;;;0.60;0.55;;;;;;;;;;4992049;28;20341;-78
2022/05/27 11:45:40;;;;;;;5.63;1.52;;;;;;;;;;5000391;28;20025;-88
2022/05/27 11:48:36;;;;;;;0.52;0.30;;;;;;;;;;4999625;28;20056;-81
2022/05/27 11:51:17;;;;;;;0.47;0.43;;;;;;;;;;5008533;28;20052;-85
2022/05/27 11:53:50;;;;;;;0.35;0.35;;;;;;;;;;5009165;28;20025;-78
2022/05/27 11:56:22;;;;;;;0.75;0.70;;;;;;;;;;5006612;28;20400;-78
2022/05/27 11:58:59;;;;;;;0.70;0.35;;;;;;;;;;5008584;28;20504;-77
2022/05/27 12:01:35;;;;;;;0.63;0.63;;;;;;;;;;4994748;28;20505;-77
2022/05/27 12:04:05;;;;;;;0.98;0.30;;;;;;;;;;5047452;28;20123;-78
2022/05/27 12:06:39;;;;;;;4.00;0.28;;;;;;;;;;5052584;28;20118;-78
2022/05/27 12:09:07;;;;;;;3.00;0.73;;;;;;;;;;5046028;28;20387;-78
2022/05/27 12:11:39;;;;;;;0.55;0.50;;;;;;;;;;5049286;28;20584;-80
2022/05/27 12:14:14;;;;;;;3.13;1.17;;;;;;;;;;5049618;28;20032;-78
2022/05/27 12:16:42;;;;;;;1.80;0.93;;;;;;;;;;5033774;28;20433;-78
2022/05/27 12:19:27;;;;;;;2.55;0.68;;;;;;;;;;5046715;28;20147;-79
2022/05/27 12:21:58;;;;;;;4.93;1.15;;;;;;;;;;5045723;28;20108;-77
2022/05/27 12:24:26;;;;;;;1.15;0.50;;;;;;;;;;5045630;28;20037;-77
2022/05/27 12:26:53;;;;;;;5.78;0.80;;;;;;;;;;5043881;28;20025;-78
2022/05/27 12:29:21;;;;;;;0.70;0.60;;;;;;;;;;5036810;28;20063;-78
2022/05/27 12:31:47;;;;;;;1.77;0.47;;;;;;;;;;5040776;28;20395;-79
2022/05/27 12:34:28;;;;;;;0.32;0.30;;;;;;;;;;5045177;28;20033;-77
2022/05/27 12:37:02;;;;;;;1.17;0.60;;;;;;;;;;5045531;28;20472;-75
2022/05/27 12:39:29;;;;;;;0.50;0.47;;;;;;;;;;5032230;28;20410;-79
2022/05/27 12:42:12;;;;;;;0.73;0.70;;;;;;;;;;5044882;28;20560;-77
2022/05/27 12:44:38;;;;;;;2.20;1.17;;;;;;;;;;5041084;28;20025;-78
2022/05/27 12:47:05;;;;;;;0.30;0.30;;;;;;;;;;5050315;28;20514;-79
2022/05/27 12:49:31;;;;;;;0.60;0.32;;;;;;;;;;5034615;28;20033;-80
2022/05/27 12:51:57;;;;;;;1.05;0.82;;;;;;;;;;5043112;28;20033;-80
2022/05/27 12:54:42;;;;;;;1.10;0.45;;;;;;;;;;5047107;28;20033;-81
2022/05/27 13:03:30;;;;;;;0.38;0.35;;;;;;;;;;5043340;28;20051;-79
2022/05/27 13:06:04;;;;;;;1.50;1.23;;;;;;;;;;5039403;28;20512;-77
2022/05/27 13:08:35;;;;;;;0.20;0.20;;;;;;;;;;5039359;28;20029;-79
2022/05/27 13:11:00;;;;;;;3.40;0.93;;;;;;;;;;5061646;28;20046;-78
2022/05/27 13:13:29;;;;;;;0.20;0.20;;;;;;;;;;5033804;28;20041;-77
2022/05/27 13:16:07;;;;;;;4.18;0.95;;;;;;;;;;5034443;28;20021;-77
2022/05/27 13:18:38;;;;;;;0.30;0.30;;;;;;;;;;5029959;28;20026;-77
2022/05/27 13:21:09;;;;;;;2.05;0.75;;;;;;;;;;5038879;28;20049;-78
2022/05/27 13:23:48;;;;;;;0.77;0.63;;;;;;;;;;5040732;28;20439;-78
2022/05/27 13:26:17;;;;;;;0.47;0.47;;;;;;;;;;5035690;28;20411;-77
2022/05/27 13:28:48;;;;;;;0.63;0.50;;;;;;;;;;5038213;28;20044;-77
2022/05/27 13:31:20;;;;;;;0.95;0.55;;;;;;;;;;5036416;28;20545;-79
2022/05/27 13:33:54;;;;;;;1.38;0.70;;;;;;;;;;5039175;28;20028;-79
2022/05/27 13:36:24;;;;;;;1.73;0.50;;;;;;;;;;5038178;28;20098;-80
2022/05/27 13:39:05;;;;;;;1.08;0.95;;;;;;;;;;5035907;28;20430;-80
2022/05/27 13:41:36;;;;;;;2.80;1.13;;;;;;;;;;5040167;28;20539;-78
2022/05/27 13:44:02;;;;;;;0.38;0.38;;;;;;;;;;5033208;28;20032;-78
2022/05/27 13:46:31;;;;;;;5.53;0.65;;;;;;;;;;5036108;28;20025;-80
2022/05/27 13:49:14;;;;;;;1.05;0.88;;;;;;;;;;5031496;28;20041;-79
2022/05/27 13:51:41;;;;;;;2.17;0.85;;;;;;;;;;5048357;28;20104;-78
2022/05/27 13:54:14;;;;;;;3.70;0.32;;;;;;;;;;5048669;28;20059;-80
2022/05/27 13:56:43;;;;;;;0.10;0.10;;;;;;;;;;5037922;28;20044;-79
2022/05/27 13:59:30;;;;;;;5.82;0.57;;;;;;;;;;5030319;28;20029;-79
2022/05/27 14:02:00;;;;;;;1.40;0.68;;;;;;;;;;5041337;28;20086;-78
2022/05/27 14:04:31;;;;;;;0.98;0.50;;;;;;;;;;5038229;28;20033;-78
2022/05/27 14:06:57;;;;;;;1.42;0.77;;;;;;;;;;5042235;28;20032;-77
2022/05/27 14:09:29;;;;;;;1.10;0.63;;;;;;;;;;5041196;28;20041;-77
2022/05/27 14:11:59;;;;;;;0.80;0.77;;;;;;;;;;5033880;28;20390;-80
2022/05/27 14:14:37;;;;;;;0.60;0.60;;;;;;;;;;5038424;28;20088;-81
2022/05/27 14:17:03;;;;;;;1.70;0.70;;;;;;;;;;5040194;28;20143;-81
2022/05/27 14:19:29;;;;;;;1.73;0.50;;;;;;;;;;5034570;28;20025;-81
2022/05/27 14:25:04;;;;;;;2.72;0.38;;;;;;;;;;5039227;28;20048;-79
2022/05/27 14:27:31;;;;;;;1.67;0.50;;;;;;;;;;5038420;28;20029;-79
2022/05/27 14:29:58;;;;;;;0.50;0.50;;;;;;;;;;5036597;28;20045;-80
2022/05/27 14:32:24;;;;;;;0.35;0.35;;;;;;;;;;5032376;28;20479;-82
2022/05/27 14:34:52;;;;;;;0.25;0.20;;;;;;;;;;5037282;28;20036;-77
2022/05/27 14:37:39;;;;;;;0.65;0.38;;;;;;;;;;5034068;28;20107;-77
2022/05/27 14:40:07;;;;;;;1.88;0.98;;;;;;;;;;5035529;28;20034;-77
2022/05/27 14:42:33;;;;;;;1.45;0.80;;;;;;;;;;5041848;28;20487;-78
2022/05/27 14:44:59;;;;;;;1.35;0.98;;;;;;;;;;5047757;28;20032;-77
2022/05/27 14:47:30;;;;;;;2.15;0.88;;;;;;;;;;5034958;28;20029;-77
2022/05/27 14:49:57;;;;;;;1.95;1.23;;;;;;;;;;5041592;28;20026;-77
2022/05/27 14:52:29;;;;;;;0.40;0.38;;;;;;;;;;5047965;28;20041;-76
2022/05/27 14:54:57;;;;;;;0.30;0.30;;;;;;;;;;5042056;28;20017;-74
2022/05/27 14:57:31;;;;;;;0.20;0.20;;;;;;;;;;5038534;28;20689;-76
2022/05/27 15:00:09;;;;;;;1.13;0.60;;;;;;;;;;5049280;28;20021;-77
2022/05/27 15:02:35;;;;;;;1.25;0.60;;;;;;;;;;5029290;28;20042;-76
2022/05/27 15:05:04;;;;;;;0.70;0.40;;;;;;;;;;5040286;28;20033;-74
2022/05/27 15:07:46;;;;;;;1.40;0.60;;;;;;;;;;5036254;28;20075;-77
2022/05/27 15:10:21;;;;;;;2.28;0.40;;;;;;;;;;5037687;28;20025;-77
2022/05/27 15:12:47;;;;;;;1.95;0.80;;;;;;;;;;5044395;28;20064;-78
2022/05/27 15:15:26;;;;;;;0.30;0.30;;;;;;;;;;5037953;28;20039;-77
2022/05/27 15:17:58;;;;;;;0.85;0.75;;;;;;;;;;5041550;28;20021;-78
2022/05/27 15:20:24;;;;;;;5.18;0.30;;;;;;;;;;5031871;28;20032;-78
2022/05/27 15:22:51;;;;;;;4.60;0.75;;;;;;;;;;5032955;28;20041;-78
2022/05/27 15:25:19;;;;;;;1.70;0.63;;;;;;;;;;5035200;28;20082;-78
2022/05/27 15:33:27;;;;;;;1.90;0.32;;;;;;;;;;5049612;28;20036;-78
2022/05/27 15:35:55;;;;;;;0.30;0.30;;;;;;;;;;5049323;28;20033;-78
2022/05/27 15:38:24;;;;;;;0.88;0.22;;;;;;;;;;5049407;28;20139;-77
2022/05/27 15:40:50;;;;;;;0.32;0.32;;;;;;;;;;5041142;28;20032;-77
2022/05/27 15:43:19;;;;;;;0.28;0.25;;;;;;;;;;5038326;28;20038;-77
2022/05/27 15:45:45;;;;;;;1.70;0.25;;;;;;;;;;5035366;28;20475;-77
2022/05/27 15:48:12;;;;;;;1.25;0.65;;;;;;;;;;5043859;28;20033;-77